createdAt,value
2019-02-21T00:00:40.228Z,0.00
2019-02-21T00:01:40.233Z,0.00
2019-02-21T00:02:40.179Z,0.00
2019-02-21T00:03:40.230Z,0.00
2019-02-21T00:04:40.136Z,0.00
2019-02-21T00:05:40.191Z,0.00
2019-02-21T00:06:40.134Z,0.00
2019-02-21T00:07:40.109Z,0.00
2019-02-21T00:08:40.123Z,0.00
2019-02-21T00:09:40.100Z,0.00
2019-02-21T00:10:40.099Z,0.00
2019-02-21T00:11:40.114Z,0.00
2019-02-21T00:12:40.124Z,0.00
2019-02-21T00:13:40.063Z,0.00
2019-02-21T00:14:40.085Z,0.00
2019-02-21T00:15:40.047Z,0.00
2019-02-21T00:16:40.036Z,0.00
2019-02-21T00:17:39.999Z,0.00
2019-02-21T00:18:40.045Z,0.00
2019-02-21T00:19:40.050Z,0.00
2019-02-21T00:20:39.989Z,0.00
2019-02-21T00:21:39.991Z,0.00
2019-02-21T00:22:39.973Z,0.00
2019-02-21T00:23:39.959Z,0.00
2019-02-21T00:24:40.169Z,0.00
2019-02-21T00:25:39.941Z,0.00
2019-02-21T00:26:39.932Z,0.00
2019-02-21T00:27:39.908Z,0.00
2019-02-21T00:28:39.930Z,0.00
2019-02-21T00:29:39.924Z,0.00
2019-02-21T00:30:39.889Z,0.00
2019-02-21T00:31:40.277Z,0.00
2019-02-21T00:32:39.886Z,0.00
2019-02-21T00:33:39.876Z,0.00
2019-02-21T00:34:39.884Z,0.00
2019-02-21T00:35:39.859Z,0.00
2019-02-21T00:36:39.832Z,0.00
2019-02-21T00:37:39.791Z,0.00
2019-02-21T00:38:39.847Z,0.00
2019-02-21T00:39:39.788Z,0.00
2019-02-21T00:40:39.834Z,0.00
2019-02-21T00:41:39.799Z,0.00
2019-02-21T00:42:39.763Z,0.00
2019-02-21T00:43:39.781Z,0.00
2019-02-21T00:44:39.824Z,0.00
2019-02-21T00:45:39.732Z,0.00
2019-02-21T00:46:39.712Z,0.00
2019-02-21T00:47:39.704Z,0.00
2019-02-21T00:48:39.714Z,0.00
2019-02-21T00:49:39.705Z,0.00
2019-02-21T00:50:39.754Z,0.00
2019-02-21T00:51:39.688Z,0.00
2019-02-21T00:52:39.662Z,0.00
2019-02-21T00:53:39.677Z,0.00
2019-02-21T00:54:39.658Z,0.00
2019-02-21T00:55:39.621Z,0.00
2019-02-21T00:56:39.616Z,0.00
2019-02-21T00:57:39.606Z,0.00
2019-02-21T00:58:39.573Z,0.00
2019-02-21T00:59:39.607Z,0.00
2019-02-21T01:00:46.639Z,0.00
2019-02-21T01:01:40.553Z,0.00
2019-02-21T01:02:39.568Z,0.00
2019-02-21T01:03:39.534Z,0.00
2019-02-21T01:04:39.552Z,0.00
2019-02-21T01:05:39.551Z,0.00
2019-02-21T01:06:39.555Z,0.00
2019-02-21T01:07:39.515Z,0.00
2019-02-21T01:08:39.541Z,0.00
2019-02-21T01:09:39.465Z,0.00
2019-02-21T01:10:39.458Z,0.00
2019-02-21T01:11:39.516Z,0.00
2019-02-21T01:12:39.442Z,0.00
2019-02-21T01:13:39.428Z,0.00
2019-02-21T01:14:39.441Z,0.00
2019-02-21T01:15:39.452Z,0.00
2019-02-21T01:16:39.441Z,0.00
2019-02-21T01:17:39.436Z,0.00
2019-02-21T01:18:39.399Z,0.00
2019-02-21T01:19:39.444Z,0.00
2019-02-21T01:20:39.394Z,0.00
2019-02-21T01:21:39.408Z,0.00
2019-02-21T01:22:39.374Z,0.00
2019-02-21T01:23:39.364Z,0.00
2019-02-21T01:24:39.368Z,0.00
2019-02-21T01:25:39.296Z,0.00
2019-02-21T01:26:39.413Z,0.00
2019-02-21T01:27:39.323Z,0.00
2019-02-21T01:28:39.317Z,0.00
2019-02-21T01:29:39.279Z,0.00
2019-02-21T01:30:39.303Z,0.00
2019-02-21T01:31:39.291Z,0.00
2019-02-21T01:32:39.244Z,0.00
2019-02-21T01:33:39.230Z,0.00
2019-02-21T01:34:39.201Z,0.00
2019-02-21T01:35:39.197Z,0.00
2019-02-21T01:36:39.220Z,0.00
2019-02-21T01:37:39.182Z,0.00
2019-02-21T01:38:39.183Z,0.00
2019-02-21T01:39:39.150Z,0.00
2019-02-21T01:40:39.128Z,0.00
2019-02-21T01:41:39.116Z,0.00
2019-02-21T01:42:39.121Z,0.00
2019-02-21T01:43:39.097Z,0.00
2019-02-21T01:44:39.092Z,0.00
2019-02-21T01:45:39.079Z,0.00
2019-02-21T01:46:39.148Z,0.00
2019-02-21T01:47:39.098Z,0.00
2019-02-21T01:48:39.057Z,0.00
2019-02-21T01:49:39.033Z,0.00
2019-02-21T01:50:39.022Z,0.00
2019-02-21T01:51:39.016Z,0.00
2019-02-21T01:52:39.061Z,0.00
2019-02-21T01:53:38.984Z,0.00
2019-02-21T01:54:38.978Z,0.00
2019-02-21T01:55:38.966Z,0.00
2019-02-21T01:56:38.970Z,0.00
2019-02-21T01:57:38.961Z,0.00
2019-02-21T01:58:38.959Z,0.00
2019-02-21T01:59:38.914Z,0.00
2019-02-21T02:00:38.919Z,0.00
2019-02-21T02:01:38.906Z,0.00
2019-02-21T02:02:38.889Z,0.00
2019-02-21T02:03:38.946Z,0.00
2019-02-21T02:04:38.861Z,0.00
2019-02-21T02:05:38.855Z,0.00
2019-02-21T02:06:38.872Z,0.00
2019-02-21T02:07:38.852Z,0.00
2019-02-21T02:08:38.915Z,0.00
2019-02-21T02:09:38.817Z,0.00
2019-02-21T02:10:38.806Z,0.00
2019-02-21T02:11:38.789Z,0.00
2019-02-21T02:12:38.807Z,0.00
2019-02-21T02:13:38.774Z,0.00
2019-02-21T02:14:38.801Z,0.00
2019-02-21T02:15:38.747Z,0.00
2019-02-21T02:16:38.739Z,0.00
2019-02-21T02:17:38.749Z,0.00
2019-02-21T02:18:38.807Z,0.00
2019-02-21T02:19:38.701Z,0.00
2019-02-21T02:20:38.725Z,0.00
2019-02-21T02:21:38.681Z,0.00
2019-02-21T02:22:38.671Z,0.00
2019-02-21T02:23:38.670Z,0.00
2019-02-21T02:24:38.673Z,0.00
2019-02-21T02:25:38.663Z,0.00
2019-02-21T02:26:38.624Z,0.00
2019-02-21T02:27:38.613Z,0.00
2019-02-21T02:28:38.644Z,0.00
2019-02-21T02:29:38.622Z,0.00
2019-02-21T02:30:38.574Z,0.00
2019-02-21T02:31:38.567Z,0.00
2019-02-21T02:32:38.572Z,0.00
2019-02-21T02:33:38.582Z,0.00
2019-02-21T02:34:38.551Z,0.00
2019-02-21T02:35:38.578Z,0.00
2019-02-21T02:36:38.551Z,0.00
2019-02-21T02:37:38.506Z,0.00
2019-02-21T02:38:38.542Z,0.00
2019-02-21T02:39:38.515Z,0.00
2019-02-21T02:40:38.475Z,0.00
2019-02-21T02:41:38.468Z,0.00
2019-02-21T02:42:38.462Z,0.00
2019-02-21T02:43:38.434Z,0.00
2019-02-21T02:44:38.471Z,0.00
2019-02-21T02:45:38.413Z,0.00
2019-02-21T02:46:38.435Z,0.00
2019-02-21T02:47:38.418Z,0.00
2019-02-21T02:48:38.394Z,0.00
2019-02-21T02:49:38.354Z,0.00
2019-02-21T02:50:38.368Z,0.00
2019-02-21T02:51:38.349Z,0.00
2019-02-21T02:52:38.340Z,0.00
2019-02-21T02:53:38.384Z,0.00
2019-02-21T02:54:38.414Z,0.00
2019-02-21T02:55:38.318Z,0.00
2019-02-21T02:56:38.323Z,0.00
2019-02-21T02:57:38.302Z,0.00
2019-02-21T02:58:38.296Z,0.00
2019-02-21T02:59:41.121Z,0.00
2019-02-21T03:00:38.261Z,0.00
2019-02-21T03:01:38.281Z,0.00
2019-02-21T03:02:38.264Z,0.00
2019-02-21T03:03:38.227Z,0.00
2019-02-21T03:04:38.302Z,0.00
2019-02-21T03:05:38.232Z,0.00
2019-02-21T03:06:38.249Z,0.00
2019-02-21T03:07:38.218Z,0.00
2019-02-21T03:08:38.190Z,0.00
2019-02-21T03:09:38.186Z,0.00
2019-02-21T03:10:38.233Z,0.00
2019-02-21T03:11:38.192Z,0.00
2019-02-21T03:12:38.160Z,0.00
2019-02-21T03:13:38.120Z,0.00
2019-02-21T03:14:38.107Z,0.00
2019-02-21T03:15:38.157Z,0.00
2019-02-21T03:16:38.087Z,0.00
2019-02-21T03:17:38.068Z,0.00
2019-02-21T03:18:38.084Z,0.00
2019-02-21T03:19:38.029Z,0.00
2019-02-21T03:20:38.036Z,0.00
2019-02-21T03:21:38.057Z,0.00
2019-02-21T03:22:38.017Z,0.00
2019-02-21T03:23:37.999Z,0.00
2019-02-21T03:24:38.000Z,0.00
2019-02-21T03:25:38.205Z,0.00
2019-02-21T03:26:37.969Z,0.00
2019-02-21T03:27:37.969Z,0.00
2019-02-21T03:28:38.053Z,0.00
2019-02-21T03:29:37.964Z,0.00
2019-02-21T03:32:01.218Z,0.00
2019-02-21T03:33:01.101Z,0.00
2019-02-21T03:34:01.088Z,0.00
2019-02-21T03:35:01.077Z,0.00
2019-02-21T03:36:01.119Z,0.00
2019-02-21T03:37:01.029Z,0.00
2019-02-21T03:38:01.022Z,0.00
2019-02-21T03:39:01.043Z,0.00
2019-02-21T03:40:00.999Z,0.00
2019-02-21T03:41:01.057Z,0.00
2019-02-21T03:42:01.068Z,0.00
2019-02-21T03:43:00.983Z,0.00
2019-02-21T03:44:00.981Z,0.00
2019-02-21T03:45:00.963Z,0.00
2019-02-21T03:46:00.937Z,0.00
2019-02-21T03:47:00.974Z,0.00
2019-02-21T03:48:00.907Z,0.00
2019-02-21T03:49:00.899Z,0.00
2019-02-21T03:50:00.910Z,0.00
2019-02-21T03:51:00.939Z,0.00
2019-02-21T03:52:00.919Z,0.00
2019-02-21T03:53:00.860Z,0.00
2019-02-21T03:54:00.869Z,0.00
2019-02-21T03:55:00.848Z,0.00
2019-02-21T03:56:00.898Z,0.00
2019-02-21T03:57:00.813Z,0.00
2019-02-21T03:58:00.832Z,0.00
2019-02-21T03:59:00.818Z,0.00
2019-02-21T04:00:00.787Z,0.00
2019-02-21T04:01:00.783Z,0.00
2019-02-21T04:02:05.282Z,0.00
2019-02-21T04:03:01.747Z,0.00
2019-02-21T04:04:00.726Z,0.00
2019-02-21T04:05:00.760Z,0.00
2019-02-21T04:06:00.795Z,0.00
2019-02-21T04:07:00.755Z,0.00
2019-02-21T04:08:00.735Z,0.00
2019-02-21T04:09:00.677Z,0.00
2019-02-21T04:10:00.658Z,0.00
2019-02-21T04:11:00.658Z,0.00
2019-02-21T04:12:00.646Z,0.00
2019-02-21T04:13:00.650Z,0.00
2019-02-21T04:14:00.621Z,0.00
2019-02-21T04:15:00.615Z,0.00
2019-02-21T04:16:00.598Z,0.00
2019-02-21T04:17:00.616Z,0.00
2019-02-21T04:18:00.576Z,0.00
2019-02-21T04:19:00.595Z,0.00
2019-02-21T04:20:00.555Z,0.00
2019-02-21T04:21:00.524Z,0.00
2019-02-21T04:22:00.565Z,0.00
2019-02-21T04:23:00.544Z,0.00
2019-02-21T04:24:00.508Z,0.00
2019-02-21T04:25:00.499Z,0.00
2019-02-21T04:26:00.490Z,0.00
2019-02-21T04:27:00.467Z,0.00
2019-02-21T04:28:00.509Z,0.00
2019-02-21T04:29:00.462Z,0.00
2019-02-21T04:30:00.471Z,0.00
2019-02-21T04:31:00.453Z,0.00
2019-02-21T04:32:00.420Z,0.00
2019-02-21T04:33:00.418Z,0.00
2019-02-21T04:34:00.407Z,0.00
2019-02-21T04:35:00.399Z,0.00
2019-02-21T04:36:00.386Z,0.00
2019-02-21T04:37:00.384Z,0.00
2019-02-21T04:38:00.411Z,0.00
2019-02-21T04:39:00.371Z,0.00
2019-02-21T04:40:00.376Z,0.00
2019-02-21T04:41:00.353Z,0.00
2019-02-21T04:42:00.355Z,0.00
2019-02-21T04:43:00.396Z,0.00
2019-02-21T04:44:00.318Z,0.00
2019-02-21T04:45:00.570Z,0.00
2019-02-21T04:46:00.302Z,0.00
2019-02-21T04:47:00.269Z,0.00
2019-02-21T04:48:00.342Z,0.00
2019-02-21T04:49:00.263Z,0.00
2019-02-21T04:50:00.614Z,0.00
2019-02-21T04:51:00.229Z,0.00
2019-02-21T04:52:00.226Z,0.00
2019-02-21T04:53:00.223Z,0.00
2019-02-21T04:54:00.174Z,0.00
2019-02-21T04:55:00.489Z,0.00
2019-02-21T04:56:00.159Z,0.00
2019-02-21T04:57:00.175Z,0.00
2019-02-21T04:58:00.155Z,0.00
2019-02-21T04:59:00.290Z,0.00
2019-02-21T05:00:00.379Z,0.00
2019-02-21T05:01:00.131Z,0.00
2019-02-21T05:02:00.067Z,0.00
2019-02-21T05:03:00.167Z,0.00
2019-02-21T05:04:00.115Z,0.00
2019-02-21T05:05:00.067Z,0.00
2019-02-21T05:06:00.100Z,0.00
2019-02-21T05:07:00.031Z,0.00
2019-02-21T05:08:00.052Z,0.00
2019-02-21T05:09:00.072Z,0.00
2019-02-21T05:10:00.011Z,0.00
2019-02-21T05:10:59.987Z,0.00
2019-02-21T05:11:59.988Z,0.00
2019-02-21T05:12:59.965Z,0.00
2019-02-21T05:13:59.990Z,0.00
2019-02-21T05:14:59.988Z,0.00
2019-02-21T05:15:59.936Z,0.00
2019-02-21T05:17:00.770Z,0.00
2019-02-21T05:17:59.933Z,0.00
2019-02-21T05:18:59.908Z,0.00
2019-02-21T05:19:59.949Z,0.00
2019-02-21T05:20:59.966Z,0.00
2019-02-21T05:21:59.889Z,0.00
2019-02-21T05:22:59.865Z,0.00
2019-02-21T05:23:59.858Z,0.00
2019-02-21T05:24:59.834Z,0.00
2019-02-21T05:25:59.885Z,0.00
2019-02-21T05:26:59.812Z,0.00
2019-02-21T05:27:59.805Z,0.00
2019-02-21T05:28:59.834Z,0.00
2019-02-21T05:29:59.832Z,0.00
2019-02-21T05:30:59.793Z,0.00
2019-02-21T05:31:59.793Z,0.00
2019-02-21T05:32:59.783Z,0.00
2019-02-21T05:33:59.820Z,0.00
2019-02-21T05:34:59.782Z,0.00
2019-02-21T05:35:59.746Z,0.00
2019-02-21T05:36:59.684Z,0.00
2019-02-21T05:37:59.708Z,0.00
2019-02-21T05:38:59.678Z,0.00
2019-02-21T05:40:02.961Z,0.00
2019-02-21T05:40:59.725Z,0.00
2019-02-21T05:41:59.642Z,0.00
2019-02-21T05:42:59.635Z,0.00
2019-02-21T05:43:59.624Z,0.00
2019-02-21T05:44:59.673Z,0.00
2019-02-21T05:45:59.609Z,0.00
2019-02-21T05:46:59.646Z,0.00
2019-02-21T05:48:01.231Z,0.00
2019-02-21T05:48:59.567Z,0.00
2019-02-21T05:49:59.556Z,0.00
2019-02-21T05:50:59.582Z,0.00
2019-02-21T05:51:59.573Z,0.00
2019-02-21T05:52:59.559Z,0.00
2019-02-21T05:53:59.518Z,0.00
2019-02-21T05:54:59.542Z,0.00
2019-02-21T05:55:59.530Z,0.00
2019-02-21T05:56:59.512Z,0.00
2019-02-21T05:57:59.474Z,0.00
2019-02-21T05:58:59.487Z,0.00
2019-02-21T05:59:59.474Z,0.00
2019-02-21T06:00:59.467Z,0.00
2019-02-21T06:01:59.450Z,0.00
2019-02-21T06:02:59.426Z,0.00
2019-02-21T06:03:59.424Z,0.00
2019-02-21T06:04:59.417Z,0.00
2019-02-21T06:05:59.444Z,0.00
2019-02-21T06:06:59.398Z,0.00
2019-02-21T06:07:59.389Z,0.00
2019-02-21T06:08:59.361Z,0.00
2019-02-21T06:09:59.379Z,4.00
2019-02-21T06:10:59.356Z,4.00
2019-02-21T06:11:59.373Z,0.00
2019-02-21T06:13:00.154Z,4.00
2019-02-21T06:13:59.299Z,0.00
2019-02-21T06:14:59.280Z,4.00
2019-02-21T06:15:59.316Z,4.00
2019-02-21T06:16:59.492Z,8.00
2019-02-21T06:17:59.273Z,8.00
2019-02-21T06:18:59.233Z,8.00
2019-02-21T06:19:59.222Z,8.00
2019-02-21T06:20:59.248Z,12.00
2019-02-21T06:22:10.053Z,16.00
2019-02-21T06:23:00.298Z,12.00
2019-02-21T06:23:59.211Z,16.00
2019-02-21T06:24:59.208Z,20.00
2019-02-21T06:25:59.447Z,20.00
2019-02-21T06:27:00.932Z,28.00
2019-02-21T06:27:59.140Z,28.00
2019-02-21T06:28:59.129Z,32.00
2019-02-21T06:29:59.172Z,36.00
2019-02-21T06:30:59.151Z,40.00
2019-02-21T06:31:59.173Z,44.00
2019-02-21T06:33:05.104Z,48.00
2019-02-21T06:34:00.092Z,52.00
2019-02-21T06:34:59.070Z,56.00
2019-02-21T06:35:59.054Z,64.00
2019-02-21T06:36:59.118Z,68.00
2019-02-21T06:37:59.055Z,76.00
2019-02-21T06:38:59.045Z,84.00
2019-02-21T06:39:58.989Z,96.00
2019-02-21T06:40:58.979Z,100.00
2019-02-21T06:42:00.289Z,116.00
2019-02-21T06:42:59.004Z,120.00
2019-02-21T06:43:58.973Z,136.00
2019-02-21T06:44:58.981Z,148.00
2019-02-21T06:45:58.953Z,160.00
2019-02-21T06:46:58.946Z,172.00
2019-02-21T06:47:58.970Z,188.00
2019-02-21T06:48:58.931Z,196.00
2019-02-21T06:49:58.896Z,204.00
2019-02-21T06:50:58.948Z,212.00
2019-02-21T06:51:58.897Z,220.00
2019-02-21T06:52:58.894Z,228.00
2019-02-21T06:53:58.889Z,236.00
2019-02-21T06:54:58.863Z,240.00
2019-02-21T06:55:58.854Z,252.00
2019-02-21T06:56:58.851Z,260.00
2019-02-21T06:57:58.856Z,268.00
2019-02-21T06:58:58.830Z,276.00
2019-02-21T06:59:58.828Z,288.00
2019-02-21T07:00:58.802Z,304.00
2019-02-21T07:01:58.765Z,320.00
2019-02-21T07:02:58.809Z,340.00
2019-02-21T07:03:58.739Z,352.00
2019-02-21T07:04:58.723Z,360.00
2019-02-21T07:05:58.720Z,372.00
2019-02-21T07:06:58.697Z,388.00
2019-02-21T07:07:58.738Z,412.00
2019-02-21T07:08:59.913Z,436.00
2019-02-21T07:09:58.704Z,416.00
2019-02-21T07:11:05.928Z,428.00
2019-02-21T07:11:59.645Z,464.00
2019-02-21T07:12:58.711Z,460.00
2019-02-21T07:13:58.626Z,448.00
2019-02-21T07:14:58.614Z,464.00
2019-02-21T07:15:58.729Z,476.00
2019-02-21T07:16:58.606Z,504.00
2019-02-21T07:17:58.650Z,576.00
2019-02-21T07:18:58.659Z,632.00
2019-02-21T07:19:58.599Z,640.00
2019-02-21T07:20:58.580Z,576.00
2019-02-21T07:21:58.540Z,580.00
2019-02-21T07:22:58.533Z,576.00
2019-02-21T07:23:58.556Z,560.00
2019-02-21T07:24:58.501Z,568.00
2019-02-21T07:25:58.501Z,584.00
2019-02-21T07:26:58.482Z,600.00
2019-02-21T07:27:58.547Z,624.00
2019-02-21T07:28:58.535Z,652.00
2019-02-21T07:29:58.483Z,756.00
2019-02-21T07:30:58.501Z,848.00
2019-02-21T07:31:58.453Z,788.00
2019-02-21T07:32:58.406Z,792.00
2019-02-21T07:33:58.465Z,872.00
2019-02-21T07:34:58.431Z,888.00
2019-02-21T07:35:58.392Z,916.00
2019-02-21T07:36:58.387Z,928.00
2019-02-21T07:37:58.446Z,952.00
2019-02-21T07:39:13.801Z,996.00
2019-02-21T07:39:59.363Z,1024.00
2019-02-21T07:40:58.418Z,1036.00
2019-02-21T07:41:58.322Z,1052.00
2019-02-21T07:42:58.779Z,1072.00
2019-02-21T07:43:58.307Z,1048.00
2019-02-21T07:44:59.734Z,1032.00
2019-02-21T07:45:58.263Z,1108.00
2019-02-21T07:46:58.295Z,1176.00
2019-02-21T07:47:58.236Z,1192.00
2019-02-21T07:48:58.251Z,1164.00
2019-02-21T07:49:58.316Z,1148.00
2019-02-21T07:50:58.229Z,1172.00
2019-02-21T07:51:58.219Z,1272.00
2019-02-21T07:53:02.534Z,1336.00
2019-02-21T07:53:58.247Z,1348.00
2019-02-21T07:55:01.941Z,1344.00
2019-02-21T07:55:58.170Z,1212.00
2019-02-21T07:56:58.184Z,1132.00
2019-02-21T07:57:58.129Z,1116.00
2019-02-21T07:58:58.147Z,1108.00
2019-02-21T07:59:58.138Z,1108.00
2019-02-21T08:00:58.091Z,1120.00
2019-02-21T08:01:58.098Z,1184.00
2019-02-21T08:02:58.085Z,1320.00
2019-02-21T08:03:58.119Z,1296.00
2019-02-21T08:04:58.115Z,1244.00
2019-02-21T08:05:58.068Z,1116.00
2019-02-21T08:06:58.035Z,1140.00
2019-02-21T08:07:58.057Z,1148.00
2019-02-21T08:08:58.013Z,1136.00
2019-02-21T08:09:58.021Z,984.00
2019-02-21T08:10:58.035Z,1036.00
2019-02-21T08:11:58.032Z,956.00
2019-02-21T08:12:57.983Z,1048.00
2019-02-21T08:13:57.984Z,972.00
2019-02-21T08:14:57.955Z,1016.00
2019-02-21T08:15:57.984Z,940.00
2019-02-21T08:16:57.942Z,936.00
2019-02-21T08:17:57.922Z,892.00
2019-02-21T08:18:57.972Z,880.00
2019-02-21T08:20:08.002Z,864.00
2019-02-21T08:20:58.897Z,856.00
2019-02-21T08:22:00.073Z,852.00
2019-02-21T08:22:57.878Z,848.00
2019-02-21T08:23:59.251Z,856.00
2019-02-21T08:24:57.848Z,876.00
2019-02-21T08:25:57.907Z,896.00
2019-02-21T08:26:57.814Z,916.00
2019-02-21T08:27:57.843Z,928.00
2019-02-21T08:28:57.786Z,940.00
2019-02-21T08:29:57.988Z,948.00
2019-02-21T08:30:58.213Z,968.00
2019-02-21T08:31:57.786Z,980.00
2019-02-21T08:32:57.750Z,996.00
2019-02-21T08:33:58.870Z,1000.00
2019-02-21T08:34:57.748Z,992.00
2019-02-21T08:35:58.066Z,980.00
2019-02-21T08:36:57.751Z,980.00
2019-02-21T08:37:57.709Z,980.00
2019-02-21T08:38:57.678Z,964.00
2019-02-21T08:39:57.688Z,940.00
2019-02-21T08:40:57.703Z,920.00
2019-02-21T08:41:57.688Z,924.00
2019-02-21T08:42:57.631Z,932.00
2019-02-21T08:43:57.630Z,924.00
2019-02-21T08:44:57.684Z,904.00
2019-02-21T08:45:57.754Z,868.00
2019-02-21T08:46:57.581Z,832.00
2019-02-21T08:47:57.616Z,796.00
2019-02-21T08:48:57.587Z,752.00
2019-02-21T08:49:59.609Z,712.00
2019-02-21T08:50:57.648Z,692.00
2019-02-21T08:51:57.602Z,684.00
2019-02-21T08:52:57.543Z,700.00
2019-02-21T08:53:57.519Z,716.00
2019-02-21T08:55:00.174Z,736.00
2019-02-21T08:55:57.541Z,772.00
2019-02-21T08:56:57.487Z,828.00
2019-02-21T08:57:57.532Z,904.00
2019-02-21T08:58:57.495Z,968.00
2019-02-21T08:59:57.514Z,1032.00
2019-02-21T09:00:57.450Z,1080.00
2019-02-21T09:01:57.470Z,1104.00
2019-02-21T09:02:57.440Z,1108.00
2019-02-21T09:03:57.395Z,1124.00
2019-02-21T09:04:57.374Z,1152.00
2019-02-21T09:05:57.389Z,1176.00
2019-02-21T09:06:57.383Z,1192.00
2019-02-21T09:07:57.394Z,1204.00
2019-02-21T09:08:57.373Z,1224.00
2019-02-21T09:09:57.343Z,1228.00
2019-02-21T09:10:57.336Z,1160.00
2019-02-21T09:11:57.412Z,1032.00
2019-02-21T09:12:57.338Z,904.00
2019-02-21T09:13:57.307Z,804.00
2019-02-21T09:14:57.371Z,748.00
2019-02-21T09:15:57.287Z,692.00
2019-02-21T09:16:57.265Z,648.00
2019-02-21T09:17:57.285Z,624.00
2019-02-21T09:18:57.274Z,632.00
2019-02-21T09:19:57.206Z,628.00
2019-02-21T09:20:57.258Z,612.00
2019-02-21T09:21:57.218Z,612.00
2019-02-21T09:22:57.228Z,608.00
2019-02-21T09:23:57.161Z,600.00
2019-02-21T09:24:57.185Z,584.00
2019-02-21T09:25:57.184Z,580.00
2019-02-21T09:26:59.502Z,612.00
2019-02-21T09:27:59.742Z,672.00
2019-02-21T09:28:58.602Z,752.00
2019-02-21T09:29:57.101Z,860.00
2019-02-21T09:30:57.138Z,948.00
2019-02-21T09:31:57.130Z,988.00
2019-02-21T09:32:57.093Z,1016.00
2019-02-21T09:33:57.130Z,1032.00
2019-02-21T09:34:58.794Z,1064.00
2019-02-21T09:35:57.096Z,1100.00
2019-02-21T09:36:57.071Z,1096.00
2019-02-21T09:37:57.057Z,1052.00
2019-02-21T09:38:57.109Z,1044.00
2019-02-21T09:39:57.025Z,1076.00
2019-02-21T09:40:56.992Z,1092.00
2019-02-21T09:41:56.988Z,1056.00
2019-02-21T09:42:57.004Z,1008.00
2019-02-21T09:43:56.974Z,960.00
2019-02-21T09:44:56.977Z,924.00
2019-02-21T09:45:56.918Z,912.00
2019-02-21T09:46:56.967Z,908.00
2019-02-21T09:47:56.968Z,892.00
2019-02-21T09:48:56.920Z,892.00
2019-02-21T09:49:56.988Z,888.00
2019-02-21T09:50:56.907Z,908.00
2019-02-21T09:51:56.919Z,992.00
2019-02-21T09:52:56.895Z,1124.00
2019-02-21T09:53:56.890Z,1256.00
2019-02-21T09:54:56.887Z,1348.00
2019-02-21T09:55:56.926Z,1420.00
2019-02-21T09:56:56.894Z,1460.00
2019-02-21T09:57:56.843Z,1432.00
2019-02-21T09:58:56.793Z,1492.00
2019-02-21T09:59:56.831Z,1592.00
2019-02-21T10:00:56.785Z,1668.00
2019-02-21T10:01:57.706Z,1668.00
2019-02-21T10:02:56.870Z,1568.00
2019-02-21T10:03:57.441Z,1456.00
2019-02-21T10:05:04.566Z,1388.00
2019-02-21T10:05:57.727Z,1300.00
2019-02-21T10:06:56.718Z,1176.00
2019-02-21T10:07:56.757Z,1132.00
2019-02-21T10:08:56.666Z,1144.00
2019-02-21T10:09:56.681Z,1204.00
2019-02-21T10:10:56.679Z,1364.00
2019-02-21T10:11:59.029Z,1460.00
2019-02-21T10:12:56.661Z,1468.00
2019-02-21T10:13:56.632Z,1452.00
2019-02-21T10:14:56.657Z,1496.00
2019-02-21T10:15:56.638Z,1576.00
2019-02-21T10:16:56.654Z,1628.00
2019-02-21T10:17:56.665Z,1648.00
2019-02-21T10:18:56.585Z,1644.00
2019-02-21T10:19:56.609Z,1592.00
2019-02-21T10:20:56.557Z,1516.00
2019-02-21T10:21:56.558Z,1540.00
2019-02-21T10:22:56.540Z,1660.00
2019-02-21T10:23:56.919Z,1796.00
2019-02-21T10:24:57.101Z,1936.00
2019-02-21T10:25:56.542Z,2056.00
2019-02-21T10:26:56.490Z,2084.00
2019-02-21T10:27:58.806Z,1976.00
2019-02-21T10:28:56.483Z,1884.00
2019-02-21T10:29:56.452Z,1752.00
2019-02-21T10:30:56.447Z,1688.00
2019-02-21T10:31:56.476Z,1688.00
2019-02-21T10:32:56.429Z,1708.00
2019-02-21T10:33:56.447Z,1812.00
2019-02-21T10:34:56.395Z,1924.00
2019-02-21T10:35:56.408Z,1992.00
2019-02-21T10:36:56.391Z,2028.00
2019-02-21T10:37:56.360Z,2052.00
2019-02-21T10:38:56.411Z,2044.00
2019-02-21T10:39:56.371Z,1964.00
2019-02-21T10:40:56.371Z,1796.00
2019-02-21T10:41:56.350Z,1632.00
2019-02-21T10:42:56.293Z,1560.00
2019-02-21T10:43:56.632Z,1520.00
2019-02-21T10:44:56.320Z,1492.00
2019-02-21T10:45:56.268Z,1524.00
2019-02-21T10:46:56.276Z,1612.00
2019-02-21T10:47:56.262Z,1668.00
2019-02-21T10:48:56.243Z,1704.00
2019-02-21T10:49:56.291Z,1696.00
2019-02-21T10:50:56.227Z,1668.00
2019-02-21T10:51:56.203Z,1664.00
2019-02-21T10:52:56.215Z,1688.00
2019-02-21T10:53:56.185Z,1712.00
2019-02-21T10:54:56.182Z,1712.00
2019-02-21T10:55:56.171Z,1732.00
2019-02-21T10:56:56.164Z,1764.00
2019-02-21T10:57:56.150Z,1816.00
2019-02-21T10:58:56.117Z,1860.00
2019-02-21T10:59:56.120Z,1872.00
2019-02-21T11:00:56.200Z,1952.00
2019-02-21T11:01:56.096Z,1992.00
2019-02-21T11:02:56.082Z,1968.00
2019-02-21T11:03:56.081Z,2012.00
2019-02-21T11:04:56.065Z,1996.00
2019-02-21T11:05:56.057Z,1992.00
2019-02-21T11:06:56.073Z,2020.00
2019-02-21T11:07:56.016Z,2020.00
2019-02-21T11:08:56.013Z,2044.00
2019-02-21T11:09:56.006Z,1976.00
2019-02-21T11:10:56.028Z,1956.00
2019-02-21T11:11:56.199Z,1960.00
2019-02-21T11:12:55.996Z,2016.00
2019-02-21T11:13:55.988Z,2140.00
2019-02-21T11:14:55.961Z,2260.00
2019-02-21T11:15:55.951Z,2304.00
2019-02-21T11:16:55.946Z,2276.00
2019-02-21T11:17:55.970Z,2232.00
2019-02-21T11:18:55.900Z,2248.00
2019-02-21T11:19:55.899Z,2284.00
2019-02-21T11:20:55.901Z,2260.00
2019-02-21T11:21:55.880Z,2172.00
2019-02-21T11:22:55.868Z,2016.00
2019-02-21T11:23:55.878Z,1816.00
2019-02-21T11:24:55.871Z,1628.00
2019-02-21T11:25:55.866Z,1460.00
2019-02-21T11:26:55.873Z,1332.00
2019-02-21T11:27:55.838Z,1224.00
2019-02-21T11:28:55.825Z,1140.00
2019-02-21T11:29:55.787Z,1088.00
2019-02-21T11:30:55.811Z,1048.00
2019-02-21T11:31:55.855Z,992.00
2019-02-21T11:32:55.766Z,940.00
2019-02-21T11:33:55.725Z,904.00
2019-02-21T11:35:05.792Z,888.00
2019-02-21T11:35:56.740Z,880.00
2019-02-21T11:36:55.721Z,884.00
2019-02-21T11:37:55.957Z,900.00
2019-02-21T11:38:55.693Z,940.00
2019-02-21T11:39:55.672Z,1000.00
2019-02-21T11:40:55.713Z,1048.00
2019-02-21T11:41:55.695Z,1088.00
2019-02-21T11:42:55.635Z,1136.00
2019-02-21T11:43:55.717Z,1204.00
2019-02-21T11:44:55.634Z,1280.00
2019-02-21T11:45:57.437Z,1360.00
2019-02-21T11:46:55.603Z,1448.00
2019-02-21T11:47:55.625Z,1536.00
2019-02-21T11:48:55.571Z,1612.00
2019-02-21T11:49:55.579Z,1672.00
2019-02-21T11:50:55.552Z,1776.00
2019-02-21T11:51:55.542Z,1804.00
2019-02-21T11:52:55.607Z,1940.00
2019-02-21T11:53:55.514Z,1884.00
2019-02-21T11:54:55.503Z,1928.00
2019-02-21T11:55:55.502Z,1960.00
2019-02-21T11:56:55.530Z,1796.00
2019-02-21T11:57:55.462Z,1800.00
2019-02-21T11:58:55.467Z,1808.00
2019-02-21T11:59:55.444Z,1824.00
2019-02-21T12:00:55.457Z,1856.00
2019-02-21T12:01:55.485Z,1796.00
2019-02-21T12:02:55.486Z,1736.00
2019-02-21T12:03:55.417Z,1724.00
2019-02-21T12:04:55.405Z,1720.00
2019-02-21T12:05:55.419Z,1732.00
2019-02-21T12:06:55.409Z,1748.00
2019-02-21T12:07:55.410Z,1804.00
2019-02-21T12:08:55.413Z,1920.00
2019-02-21T12:09:55.360Z,2000.00
2019-02-21T12:10:55.357Z,2052.00
2019-02-21T12:11:55.330Z,2152.00
2019-02-21T12:12:55.335Z,2156.00
2019-02-21T12:13:55.306Z,2112.00
2019-02-21T12:14:55.304Z,2008.00
2019-02-21T12:15:55.295Z,1908.00
2019-02-21T12:16:55.253Z,1824.00
2019-02-21T12:17:55.277Z,1772.00
2019-02-21T12:18:55.317Z,1740.00
2019-02-21T12:19:55.249Z,1716.00
2019-02-21T12:20:55.227Z,1688.00
2019-02-21T12:21:59.129Z,1668.00
2019-02-21T12:22:55.188Z,1684.00
2019-02-21T12:23:55.233Z,1692.00
2019-02-21T12:24:55.190Z,1708.00
2019-02-21T12:25:55.165Z,1708.00
2019-02-21T12:26:55.163Z,1724.00
2019-02-21T12:27:55.142Z,1772.00
2019-02-21T12:28:55.133Z,1876.00
2019-02-21T12:29:55.179Z,1928.00
2019-02-21T12:30:55.151Z,1948.00
2019-02-21T12:31:55.091Z,1932.00
2019-02-21T12:32:55.085Z,1888.00
2019-02-21T12:33:55.106Z,1952.00
2019-02-21T12:34:55.094Z,2012.00
2019-02-21T12:35:55.120Z,1968.00
2019-02-21T12:36:55.023Z,1868.00
2019-02-21T12:37:55.035Z,1796.00
2019-02-21T12:38:55.019Z,1756.00
2019-02-21T12:39:55.038Z,1684.00
2019-02-21T12:40:55.005Z,1616.00
2019-02-21T12:41:55.048Z,1600.00
2019-02-21T12:42:55.030Z,1588.00
2019-02-21T12:43:54.989Z,1552.00
2019-02-21T12:44:54.980Z,1592.00
2019-02-21T12:45:55.022Z,1692.00
2019-02-21T12:46:54.928Z,1800.00